createdAt,value
2023-01-02T00:00:17.385Z,8.20
2023-01-02T00:02:50.498Z,8.10
2023-01-02T00:05:20.072Z,8.20
2023-01-02T00:07:49.354Z,8.20
2023-01-02T00:10:19.121Z,8.10
2023-01-02T00:12:48.453Z,8.10
2023-01-02T00:15:17.775Z,8.20
2023-01-02T00:17:48.304Z,8.10
2023-01-02T00:20:17.781Z,8.10
2023-01-02T00:22:47.312Z,8.10
2023-01-02T00:25:16.766Z,8.20
2023-01-02T00:27:46.069Z,8.20
2023-01-02T00:30:15.544Z,8.20
2023-01-02T00:32:45.142Z,8.10
2023-01-02T00:35:14.640Z,8.10
2023-01-02T00:37:44.224Z,8.20
2023-01-02T00:40:14.187Z,8.20
2023-01-02T00:42:43.506Z,8.20
2023-01-02T00:45:13.782Z,8.20
2023-01-02T00:47:43.102Z,8.20
2023-01-02T00:50:14.692Z,8.20
2023-01-02T00:52:44.041Z,8.20
2023-01-02T00:55:17.478Z,8.20
2023-01-02T00:57:47.133Z,8.20
2023-01-02T01:00:23.672Z,8.20
2023-01-02T01:03:00.214Z,8.10
2023-01-02T01:05:32.037Z,8.10
2023-01-02T01:08:07.899Z,8.10
2023-01-02T01:10:42.413Z,8.10
2023-01-02T01:13:16.641Z,8.10
2023-01-02T01:15:46.228Z,8.10
2023-01-02T01:18:16.252Z,8.10
2023-01-02T01:25:21.564Z,8.20
2023-01-02T01:27:53.697Z,8.20
2023-01-02T01:30:23.017Z,8.20
2023-01-02T01:32:52.287Z,8.20
2023-01-02T01:35:21.543Z,8.20
2023-01-02T01:37:50.851Z,8.20
2023-01-02T01:40:20.078Z,8.20
2023-01-02T01:42:50.447Z,8.10
2023-01-02T01:45:21.190Z,8.00
2023-01-02T01:47:55.331Z,7.90
2023-01-02T01:50:35.136Z,7.80
2023-01-02T01:53:09.320Z,7.80
2023-01-02T01:55:47.299Z,7.80
2023-01-02T01:58:24.845Z,7.80
2023-01-02T02:00:56.213Z,7.90
2023-01-02T02:03:29.147Z,7.80
2023-01-02T02:06:00.299Z,7.70
2023-01-02T02:08:51.474Z,7.70
2023-01-02T02:11:21.321Z,7.70
2023-01-02T02:13:52.006Z,7.70
2023-01-02T02:16:28.654Z,7.70
2023-01-02T02:19:06.845Z,7.70
2023-01-02T02:21:55.159Z,7.70
2023-01-02T02:24:33.475Z,7.80
2023-01-02T02:27:14.075Z,7.70
2023-01-02T02:29:55.479Z,7.70
2023-01-02T02:32:36.995Z,7.80
2023-01-02T02:35:27.392Z,7.80
2023-01-02T02:38:02.972Z,7.80
2023-01-02T02:41:15.636Z,7.70
2023-01-02T02:44:22.218Z,7.70
2023-01-02T02:46:56.430Z,7.70
2023-01-02T02:49:44.404Z,7.70
2023-01-02T02:52:32.254Z,7.70
2023-01-02T02:55:17.222Z,7.60
2023-01-02T02:57:47.643Z,7.50
2023-01-02T03:00:20.301Z,7.50
2023-01-02T03:02:49.848Z,7.40
2023-01-02T03:05:30.199Z,7.20
2023-01-02T03:08:11.056Z,7.00
2023-01-02T03:10:52.597Z,6.90
2023-01-02T03:14:06.297Z,6.70
2023-01-02T03:16:40.846Z,6.70
2023-01-02T03:19:18.192Z,6.80
2023-01-02T03:21:59.483Z,6.90
2023-01-02T03:24:30.073Z,7.00
2023-01-02T03:27:07.206Z,7.10
2023-01-02T03:29:44.283Z,7.10
2023-01-02T03:32:20.760Z,7.10
2023-01-02T03:34:52.017Z,7.20
2023-01-02T03:37:26.325Z,7.20
2023-01-02T03:40:01.320Z,7.30
2023-01-02T03:42:37.198Z,7.30
2023-01-02T03:45:21.923Z,7.30
2023-01-02T03:48:12.873Z,7.30
2023-01-02T03:50:54.983Z,7.40
2023-01-02T03:53:25.733Z,7.40
2023-01-02T03:56:07.267Z,7.40
2023-01-02T03:58:51.943Z,7.50
2023-01-02T04:01:27.899Z,7.40
2023-01-02T04:04:04.305Z,7.40
2023-01-02T04:06:40.949Z,7.50
2023-01-02T04:09:14.304Z,7.50
2023-01-02T04:11:50.815Z,7.60
2023-01-02T04:14:28.594Z,7.50
2023-01-02T04:17:01.563Z,7.50
2023-01-02T04:19:59.789Z,7.60
2023-01-02T04:22:33.855Z,7.60
2023-01-02T04:25:13.796Z,7.50
2023-01-02T04:27:58.262Z,7.60
2023-01-02T04:30:29.998Z,7.50
2023-01-02T04:33:06.167Z,7.50
2023-01-02T04:35:37.050Z,7.50
2023-01-02T04:38:08.906Z,7.60
2023-01-02T04:40:39.166Z,7.60
2023-01-02T04:43:17.081Z,7.60
2023-01-02T04:45:50.373Z,7.60
2023-01-02T04:48:19.706Z,7.60
2023-01-02T04:50:49.132Z,7.70
2023-01-02T04:53:18.479Z,7.70
2023-01-02T04:55:48.005Z,7.60
2023-01-02T04:58:18.595Z,7.70
2023-01-02T05:00:49.113Z,7.70
2023-01-02T05:03:19.019Z,7.70
2023-01-02T05:05:49.213Z,7.70
2023-01-02T05:08:18.463Z,7.70
2023-01-02T05:10:48.603Z,7.70
2023-01-02T05:13:18.064Z,7.70
2023-01-02T05:15:55.066Z,7.80
2023-01-02T05:18:24.334Z,7.80
2023-01-02T05:20:53.586Z,7.80
2023-01-02T05:23:41.367Z,7.80
2023-01-02T05:26:12.933Z,7.80
2023-01-02T05:28:43.552Z,7.80
2023-01-02T05:31:16.265Z,7.80
2023-01-02T05:33:47.642Z,7.90
2023-01-02T05:36:17.890Z,7.80
2023-01-02T05:38:48.579Z,7.80
2023-01-02T05:41:17.914Z,7.80
2023-01-02T05:43:47.423Z,7.80
2023-01-02T05:46:18.973Z,7.90
2023-01-02T05:48:49.700Z,7.90
2023-01-02T05:51:19.239Z,7.90
2023-01-02T05:53:48.632Z,7.90
2023-01-02T05:56:18.731Z,7.90
2023-01-02T05:58:50.265Z,7.80
2023-01-02T06:01:29.272Z,7.80
2023-01-02T06:04:00.766Z,7.90
2023-01-02T06:06:34.848Z,7.90
2023-01-02T06:09:07.451Z,8.00
2023-01-02T06:11:37.000Z,8.00
2023-01-02T06:14:08.100Z,8.00
2023-01-02T06:16:39.722Z,8.00
2023-01-02T06:19:10.103Z,8.00
2023-01-02T06:21:39.475Z,7.90
2023-01-02T06:24:09.003Z,7.90
2023-01-02T06:26:41.258Z,7.90
2023-01-02T06:29:13.562Z,8.00
2023-01-02T06:31:51.094Z,8.00
2023-01-02T06:34:21.034Z,7.90
2023-01-02T06:36:50.431Z,7.90
2023-01-02T06:39:20.245Z,8.00
2023-01-02T06:41:49.573Z,8.00
2023-01-02T06:44:19.957Z,8.00
2023-01-02T06:46:51.686Z,8.00
2023-01-02T06:49:21.058Z,8.10
2023-01-02T06:51:50.529Z,8.20
2023-01-02T06:54:19.910Z,8.20
2023-01-02T06:56:49.208Z,8.10
2023-01-02T06:59:19.211Z,8.10
2023-01-02T07:01:48.730Z,8.20
2023-01-02T07:04:18.531Z,8.20
2023-01-02T07:06:47.917Z,8.30
2023-01-02T07:09:21.817Z,8.30
2023-01-02T07:11:55.153Z,8.40
2023-01-02T07:14:26.148Z,8.40
2023-01-02T07:16:55.747Z,8.40
2023-01-02T07:19:25.174Z,8.50
2023-01-02T07:21:54.589Z,8.50
2023-01-02T07:24:24.182Z,8.60
2023-01-02T07:26:53.599Z,8.60
2023-01-02T07:29:48.314Z,8.60
2023-01-02T07:32:27.006Z,8.60
2023-01-02T07:34:57.708Z,8.70
2023-01-02T07:38:18.024Z,8.80
2023-01-02T07:40:48.554Z,8.80
2023-01-02T07:43:18.740Z,8.80
2023-01-02T07:45:50.607Z,8.80
2023-01-02T07:48:21.169Z,8.80
2023-01-02T07:50:52.610Z,8.90
2023-01-02T07:53:21.934Z,8.90
2023-01-02T07:55:57.373Z,8.90
2023-01-02T07:58:27.182Z,9.00
2023-01-02T08:01:03.277Z,9.00
2023-01-02T08:05:12.856Z,9.00
2023-01-02T08:07:44.999Z,9.00
2023-01-02T08:10:15.036Z,9.10
2023-01-02T08:12:44.594Z,9.10
2023-01-02T08:15:14.169Z,9.20
2023-01-02T08:17:49.520Z,9.30
2023-01-02T08:20:21.823Z,9.30
2023-01-02T08:23:16.355Z,9.30
2023-01-02T08:26:45.821Z,9.40
2023-01-02T08:29:19.477Z,9.40
2023-01-02T08:36:29.298Z,9.60
2023-01-02T08:38:58.666Z,9.70
2023-01-02T08:41:37.840Z,9.70
2023-01-02T08:44:10.808Z,9.80
2023-01-02T08:46:43.142Z,9.80
2023-01-02T08:49:12.821Z,9.90
2023-01-02T08:51:42.743Z,10.00
2023-01-02T08:54:12.517Z,10.10
2023-01-02T08:56:42.767Z,10.10
2023-01-02T08:59:13.400Z,10.20
2023-01-02T09:01:46.396Z,10.30
2023-01-02T09:04:16.560Z,10.40
2023-01-02T09:06:46.387Z,10.50
2023-01-02T09:09:18.144Z,10.60
2023-01-02T09:11:52.093Z,10.70
2023-01-02T09:14:23.324Z,10.70
2023-01-02T09:16:53.346Z,10.80
2023-01-02T09:19:23.921Z,11.00
2023-01-02T09:21:54.054Z,11.10
2023-01-02T09:24:23.977Z,11.10
2023-01-02T09:26:56.323Z,11.20
2023-01-02T09:29:25.710Z,11.30
2023-01-02T09:31:55.145Z,11.40
2023-01-02T09:34:24.825Z,11.40
2023-01-02T09:36:54.211Z,11.50
2023-01-02T09:39:31.945Z,11.40
2023-01-02T09:42:08.369Z,11.40
2023-01-02T09:44:58.103Z,11.50
2023-01-02T09:47:32.954Z,11.60
2023-01-02T09:50:08.032Z,11.60
2023-01-02T09:52:44.281Z,11.70
2023-01-02T09:55:27.500Z,11.70
2023-01-02T09:58:14.474Z,11.70
2023-01-02T10:00:50.322Z,11.80
2023-01-02T10:03:31.261Z,11.80
2023-01-02T10:06:25.409Z,11.80
2023-01-02T10:09:12.788Z,11.90
2023-01-02T10:11:48.029Z,12.00
2023-01-02T10:14:27.989Z,12.10
2023-01-02T10:17:07.584Z,12.20
2023-01-02T10:20:10.884Z,12.30
2023-01-02T10:22:50.731Z,12.30
2023-01-02T10:25:45.569Z,12.40
2023-01-02T10:28:59.635Z,12.30
2023-01-02T10:31:56.348Z,12.40
2023-01-02T10:34:56.579Z,12.40
2023-01-02T10:37:27.920Z,12.40
2023-01-02T10:39:58.852Z,12.40
2023-01-02T10:42:31.283Z,12.30
2023-01-02T10:45:01.277Z,12.40
2023-01-02T10:47:39.814Z,12.40
2023-01-02T10:50:27.308Z,12.40
2023-01-02T10:53:19.878Z,12.40
2023-01-02T10:55:49.527Z,12.50
2023-01-02T10:58:29.272Z,12.50
2023-01-02T11:01:14.157Z,12.50
2023-01-02T11:03:48.894Z,12.60
2023-01-02T11:06:28.991Z,12.80
2023-01-02T11:09:17.026Z,12.80
2023-01-02T11:12:08.376Z,12.90
2023-01-02T11:14:39.221Z,12.90
2023-01-02T11:17:24.720Z,12.90
2023-01-02T11:19:57.622Z,13.00
2023-01-02T11:22:37.472Z,12.90
2023-01-02T11:25:21.160Z,12.90
2023-01-02T11:27:51.698Z,12.90
2023-01-02T11:30:27.408Z,12.80
2023-01-02T11:33:46.550Z,12.80
2023-01-02T11:36:19.853Z,12.70
2023-01-02T11:38:55.023Z,12.80
2023-01-02T11:42:22.789Z,12.70
2023-01-02T11:45:13.047Z,12.80
2023-01-02T11:47:50.094Z,12.90
2023-01-02T11:50:26.778Z,13.00
2023-01-02T11:53:05.562Z,13.00
2023-01-02T11:55:58.713Z,13.00
2023-01-02T11:58:43.795Z,13.00
2023-01-02T12:01:38.391Z,13.10
2023-01-02T12:04:07.855Z,13.20
2023-01-02T12:07:11.328Z,13.30
2023-01-02T12:10:11.176Z,13.30
2023-01-02T12:12:46.164Z,13.20
2023-01-02T12:15:33.432Z,13.20
2023-01-02T12:18:18.022Z,13.20
2023-01-02T12:21:08.210Z,13.20
2023-01-02T12:24:21.441Z,13.20
2023-01-02T12:27:15.290Z,13.30
2023-01-02T12:30:09.303Z,13.20
2023-01-02T12:33:22.989Z,13.20
2023-01-02T12:36:31.890Z,13.10
2023-01-02T12:39:40.920Z,13.00
2023-01-02T12:42:25.568Z,13.00
2023-01-02T12:44:59.240Z,12.90
2023-01-02T12:48:03.019Z,12.90
2023-01-02T12:51:06.757Z,12.80
2023-01-02T12:54:27.092Z,12.80
2023-01-02T12:57:22.301Z,12.80
2023-01-02T13:00:22.503Z,12.70
2023-01-02T13:03:22.018Z,12.70
2023-01-02T13:06:44.848Z,12.60
